Alton, Indiana
Current Conditions -  °F | °C
As of 3:18 AM on Monday 24 Nov 2014 (Local Time) from KFTK Reporting Station
Overcast Overcast  
Wind Chill: 59°   Ceiling: 2000
Heat Index: 59°   Visibility: 10mi
Dew Point: 55°   Wind: 16mph
Humidity: 88%   Direction: 180°S
Pressure: 29.36"   Gusts: 28mph
Location:  38.1914°N, 86.3619°W
Report Text: KFTK 240818Z AUTO 18014G24KT 10SM BKN020 BKN028 OVC041 15/13 A2936 RMK AO2
Loading
Personal Weather Stations






























Interactive Weather Map New forecast layout! Learn more

10-Day Weather Forecast

Advertisements
Track Severe Weather on mobile